createdAt,value
2022-12-04T00:01:08.608Z,101110.78
2022-12-04T00:03:35.768Z,101118.22
2022-12-04T00:06:14.637Z,101127.53
2022-12-04T00:08:41.841Z,101113.84
2022-12-04T00:11:10.435Z,101105.44
2022-12-04T00:13:37.816Z,101109.25
2022-12-04T00:16:06.469Z,101112.91
2022-12-04T00:18:33.196Z,101108.47
2022-12-04T00:21:00.255Z,101111.16
2022-12-04T00:23:26.843Z,101113.66
2022-12-04T00:26:00.479Z,101119.88
2022-12-04T00:28:27.067Z,101116.50
2022-12-04T00:30:53.622Z,101124.03
2022-12-04T00:33:20.211Z,101129.16
2022-12-04T00:35:46.756Z,101122.91
2022-12-04T00:38:13.301Z,101117.00
2022-12-04T00:40:39.851Z,101117.88
2022-12-04T00:43:06.415Z,101119.75
2022-12-04T00:45:33.010Z,101122.75
2022-12-04T00:47:59.582Z,101121.81
2022-12-04T00:50:26.200Z,101119.94
2022-12-04T00:52:52.717Z,101122.38
2022-12-04T00:55:19.258Z,101120.25
2022-12-04T00:57:45.796Z,101127.00
2022-12-04T01:00:12.697Z,101119.44
2022-12-04T01:02:39.287Z,101131.22
2022-12-04T01:05:06.180Z,101133.25
2022-12-04T01:07:32.770Z,101139.75
2022-12-04T01:09:59.353Z,101135.56
2022-12-04T01:12:25.916Z,101142.06
2022-12-04T01:14:52.456Z,101130.31
2022-12-04T01:17:19.140Z,101135.19
2022-12-04T01:19:45.814Z,101134.53
2022-12-04T01:22:12.385Z,101138.06
2022-12-04T01:24:38.996Z,101126.16
2022-12-04T01:27:05.604Z,101129.91
2022-12-04T01:29:32.180Z,101124.78
2022-12-04T01:31:58.811Z,101121.25
2022-12-04T01:34:25.599Z,101119.75
2022-12-04T01:36:52.745Z,101119.09
2022-12-04T01:39:19.580Z,101110.25
2022-12-04T01:41:46.207Z,101117.81
2022-12-04T01:44:26.487Z,101123.59
2022-12-04T01:46:56.025Z,101124.13
2022-12-04T01:49:28.735Z,101130.72
2022-12-04T01:52:19.111Z,101121.59
2022-12-04T01:54:50.570Z,101119.00
2022-12-04T01:57:19.478Z,101123.28
2022-12-04T01:59:53.520Z,101119.25
2022-12-04T02:02:26.029Z,101118.63
2022-12-04T02:04:53.404Z,101114.75
2022-12-04T02:07:22.665Z,101115.00
2022-12-04T02:09:55.939Z,101108.28
2022-12-04T02:12:32.813Z,101104.69
2022-12-04T02:15:12.176Z,101100.53
2022-12-04T02:17:56.267Z,101104.34
2022-12-04T02:20:48.953Z,101108.84
2022-12-04T02:23:49.410Z,101105.06
2022-12-04T02:26:31.259Z,101100.09
2022-12-04T02:29:19.276Z,101099.84
2022-12-04T02:32:01.989Z,101098.88
2022-12-04T02:34:39.393Z,101096.88
2022-12-04T02:37:15.978Z,101101.56
2022-12-04T02:39:51.439Z,101098.44
2022-12-04T02:42:25.808Z,101100.03
2022-12-04T02:45:06.346Z,101093.91
2022-12-04T02:47:36.523Z,101096.31
2022-12-04T02:50:12.854Z,101096.47
2022-12-04T02:52:48.326Z,101092.03
2022-12-04T02:55:23.740Z,101090.91
2022-12-04T02:57:54.557Z,101095.06
2022-12-04T03:00:22.051Z,101094.84
2022-12-04T03:02:53.481Z,101085.38
2022-12-04T03:05:27.762Z,101094.72
2022-12-04T03:07:59.497Z,101090.66
2022-12-04T03:10:34.526Z,101086.44
2022-12-04T03:13:22.869Z,101098.22
2022-12-04T03:15:59.854Z,101085.84
2022-12-04T03:18:36.378Z,101093.34
2022-12-04T03:21:08.294Z,101082.13
2022-12-04T03:23:44.945Z,101084.66
2022-12-04T03:26:38.118Z,101088.41
2022-12-04T03:29:10.803Z,101090.59
2022-12-04T03:31:48.916Z,101097.75
2022-12-04T03:34:26.140Z,101087.84
2022-12-04T03:36:58.890Z,101087.22
2022-12-04T03:39:34.900Z,101086.66
2022-12-04T03:42:10.256Z,101088.03
2022-12-04T03:45:01.278Z,101092.22
2022-12-04T03:47:39.411Z,101105.69
2022-12-04T03:50:21.487Z,101095.31
2022-12-04T03:53:08.390Z,101095.06
2022-12-04T03:55:44.574Z,101099.34
2022-12-04T03:58:19.847Z,101104.81
2022-12-04T04:00:49.608Z,101104.09
2022-12-04T04:03:20.012Z,101098.03
2022-12-04T04:05:50.659Z,101101.28
2022-12-04T04:08:27.265Z,101101.41
2022-12-04T04:10:59.117Z,101097.38
2022-12-04T04:13:50.931Z,101093.41
2022-12-04T04:16:39.859Z,101093.97
2022-12-04T04:19:27.378Z,101092.59
2022-12-04T04:22:14.282Z,101082.91
2022-12-04T04:24:46.144Z,101089.66
2022-12-04T04:27:13.292Z,101093.97
2022-12-04T04:29:40.143Z,101090.09
2022-12-04T04:32:39.023Z,101098.47
2022-12-04T04:35:20.653Z,101092.78
2022-12-04T04:38:11.668Z,101092.09
2022-12-04T04:40:54.808Z,101092.34
2022-12-04T04:43:30.700Z,101092.47
2022-12-04T04:46:04.639Z,101087.66
2022-12-04T04:48:39.747Z,101090.47
2022-12-04T04:51:06.736Z,101093.84
2022-12-04T04:53:45.574Z,101096.66
2022-12-04T04:56:12.824Z,101094.22
2022-12-04T04:58:39.463Z,101099.94
2022-12-04T05:01:11.068Z,101093.97
2022-12-04T05:03:37.699Z,101106.09
2022-12-04T05:06:04.286Z,101102.47
2022-12-04T05:08:30.834Z,101100.44
2022-12-04T05:10:57.378Z,101102.16
2022-12-04T05:13:24.124Z,101091.47
2022-12-04T05:15:58.833Z,101088.47
2022-12-04T05:18:26.112Z,101096.66
2022-12-04T05:20:52.689Z,101092.47
2022-12-04T05:23:19.333Z,101099.91
2022-12-04T05:25:46.132Z,101092.22
2022-12-04T05:28:13.132Z,101089.34
2022-12-04T05:30:39.759Z,101092.38
2022-12-04T05:33:06.317Z,101095.56
2022-12-04T05:35:33.154Z,101086.44
2022-12-04T05:37:59.719Z,101096.69
2022-12-04T05:40:26.264Z,101094.00
2022-12-04T05:42:52.810Z,101094.84
2022-12-04T05:45:19.342Z,101097.06
2022-12-04T05:47:45.971Z,101096.25
2022-12-04T05:50:13.892Z,101079.72
2022-12-04T05:52:40.424Z,101085.47
2022-12-04T05:55:07.277Z,101090.09
2022-12-04T05:57:33.815Z,101082.03
2022-12-04T06:00:00.385Z,101092.16
2022-12-04T06:02:27.052Z,101088.81
2022-12-04T06:04:53.664Z,101084.25
2022-12-04T06:07:20.227Z,101094.00
2022-12-04T06:09:46.848Z,101083.25
2022-12-04T06:12:14.283Z,101085.53
2022-12-04T06:14:40.850Z,101085.66
2022-12-04T06:17:07.456Z,101089.22
2022-12-04T06:19:34.040Z,101096.91
2022-12-04T06:22:00.634Z,101089.66
2022-12-04T06:24:27.546Z,101097.66
2022-12-04T06:29:45.725Z,101102.53
2022-12-04T06:32:16.499Z,101104.75
2022-12-04T06:34:53.686Z,101114.63
2022-12-04T06:37:22.703Z,101100.53
2022-12-04T06:39:49.567Z,101107.84
2022-12-04T06:42:16.246Z,101112.72
2022-12-04T06:44:42.809Z,101108.34
2022-12-04T06:47:09.555Z,101107.69
2022-12-04T06:49:36.351Z,101098.22
2022-12-04T06:52:03.430Z,101104.50
2022-12-04T06:54:29.996Z,101107.44
2022-12-04T06:56:56.585Z,101105.03
2022-12-04T06:59:23.851Z,101106.00
2022-12-04T07:01:50.769Z,101107.59
2022-12-04T07:04:17.493Z,101098.44
2022-12-04T07:06:44.069Z,101104.16
2022-12-04T07:09:15.731Z,101108.06
2022-12-04T07:11:43.682Z,101101.84
2022-12-04T07:14:15.192Z,101107.97
2022-12-04T07:16:42.780Z,101108.34
2022-12-04T07:19:13.943Z,101109.09
2022-12-04T07:21:41.388Z,101106.44
2022-12-04T07:24:13.772Z,101108.72
2022-12-04T07:26:40.435Z,101100.12
2022-12-04T07:29:07.056Z,101100.41
2022-12-04T07:31:33.669Z,101097.31
2022-12-04T07:34:00.306Z,101101.91
2022-12-04T07:36:27.185Z,101111.97
2022-12-04T07:38:55.768Z,101100.38
2022-12-04T07:41:22.650Z,101105.78
2022-12-04T07:43:49.217Z,101103.88
2022-12-04T07:46:19.666Z,101109.88
2022-12-04T07:48:46.351Z,101115.41
2022-12-04T07:51:16.010Z,101107.97
2022-12-04T07:53:43.652Z,101107.06
2022-12-04T07:56:11.902Z,101100.44
2022-12-04T07:58:38.616Z,101105.31
2022-12-04T08:01:10.944Z,101102.63
2022-12-04T08:03:42.210Z,101100.09
2022-12-04T08:06:13.608Z,101090.59
2022-12-04T08:08:40.222Z,101093.03
2022-12-04T08:11:09.574Z,101101.84
2022-12-04T08:13:36.275Z,101101.28
2022-12-04T08:16:07.361Z,101099.25
2022-12-04T08:18:34.252Z,101099.13
2022-12-04T08:21:08.521Z,101108.72
2022-12-04T08:23:35.739Z,101100.16
2022-12-04T08:26:03.031Z,101096.88
2022-12-04T08:28:30.559Z,101089.44
2022-12-04T08:31:22.485Z,101086.97
2022-12-04T08:33:50.877Z,101087.75
2022-12-04T08:36:20.871Z,101103.16
2022-12-04T08:38:47.706Z,101110.09
2022-12-04T08:41:17.012Z,101108.72
2022-12-04T08:43:43.890Z,101104.66
2022-12-04T08:46:13.795Z,101118.56
2022-12-04T08:48:40.646Z,101109.84
2022-12-04T08:51:08.267Z,101111.63
2022-12-04T08:53:36.520Z,101108.81
2022-12-04T08:56:04.344Z,101115.00
2022-12-04T08:58:31.067Z,101119.72
2022-12-04T09:01:07.563Z,101114.19
2022-12-04T09:03:34.505Z,101112.66
2022-12-04T09:06:02.035Z,101112.13
2022-12-04T09:08:28.932Z,101113.00
2022-12-04T09:10:55.740Z,101116.97
2022-12-04T09:13:22.289Z,101109.25
2022-12-04T09:15:48.896Z,101106.19
2022-12-04T09:18:15.508Z,101101.25
2022-12-04T09:20:42.068Z,101106.88
2022-12-04T09:23:08.638Z,101103.56
2022-12-04T09:25:36.983Z,101108.34
2022-12-04T09:28:04.565Z,101105.06
2022-12-04T09:30:31.213Z,101096.25
2022-12-04T09:32:57.832Z,101093.94
2022-12-04T09:35:24.379Z,101104.00
2022-12-04T09:37:50.982Z,101099.47
2022-12-04T09:40:35.198Z,101098.37
2022-12-04T09:43:18.582Z,101093.66
2022-12-04T09:45:53.586Z,101083.50
2022-12-04T09:48:22.836Z,101083.56
2022-12-04T09:50:50.452Z,101071.44
2022-12-04T09:53:21.576Z,101070.56
2022-12-04T09:56:12.320Z,101063.63
2022-12-04T09:58:46.575Z,101048.09
2022-12-04T10:01:34.616Z,101042.75
2022-12-04T10:04:06.024Z,101048.56
2022-12-04T10:06:53.816Z,101043.59
2022-12-04T10:09:27.710Z,101041.78
2022-12-04T10:12:13.275Z,101041.31
2022-12-04T10:14:49.872Z,101038.72
2022-12-04T10:17:22.335Z,101035.31
2022-12-04T10:20:34.266Z,101033.41
2022-12-04T10:23:23.971Z,101031.09
2022-12-04T10:25:54.896Z,101029.78
2022-12-04T10:28:56.849Z,101026.91
2022-12-04T10:31:25.121Z,101017.50
2022-12-04T10:34:01.544Z,101016.19
2022-12-04T10:36:34.259Z,101016.22
2022-12-04T10:39:16.510Z,101010.75
2022-12-04T10:41:55.170Z,101006.31
2022-12-04T10:44:21.918Z,101001.22
2022-12-04T10:46:49.686Z,100998.91
2022-12-04T10:49:30.728Z,100996.41
2022-12-04T10:51:57.561Z,100985.34
2022-12-04T10:54:33.701Z,100989.78
2022-12-04T10:57:01.525Z,100983.19
2022-12-04T10:59:29.210Z,100981.06
2022-12-04T11:02:21.523Z,100987.09
2022-12-04T11:04:57.292Z,100975.03
2022-12-04T11:07:30.228Z,100968.81
2022-12-04T11:10:00.096Z,100965.16
2022-12-04T11:12:26.726Z,100971.50
2022-12-04T11:15:08.587Z,100961.41
2022-12-04T11:17:35.144Z,100947.47
2022-12-04T11:20:15.394Z,100946.25
2022-12-04T11:22:54.303Z,100940.22
2022-12-04T11:25:22.495Z,100943.38
2022-12-04T11:27:53.065Z,100948.38
2022-12-04T11:30:41.779Z,100936.31
2022-12-04T11:33:32.917Z,100942.31
2022-12-04T11:36:03.127Z,100943.19
2022-12-04T11:38:31.948Z,100933.03
2022-12-04T11:40:59.356Z,100932.06
2022-12-04T11:43:28.379Z,100940.81
2022-12-04T11:46:04.007Z,100920.84
2022-12-04T11:48:32.566Z,100912.59
2022-12-04T11:51:14.207Z,100902.75
2022-12-04T11:53:47.625Z,100909.56
2022-12-04T11:56:34.407Z,100913.22
2022-12-04T11:59:32.183Z,100904.03
2022-12-04T12:02:27.798Z,100903.84
2022-12-04T12:05:08.630Z,100898.50
2022-12-04T12:08:10.077Z,100903.47
2022-12-04T12:10:55.980Z,100900.34
2022-12-04T12:14:05.246Z,100898.59
2022-12-04T12:16:46.890Z,100906.44
2022-12-04T12:19:47.478Z,100902.19
2022-12-04T12:22:26.252Z,100914.75
2022-12-04T12:25:05.351Z,100910.12
2022-12-04T12:27:37.826Z,100913.22
2022-12-04T12:30:04.445Z,100917.78
2022-12-04T12:33:01.368Z,100920.91
2022-12-04T12:35:34.327Z,100917.84
2022-12-04T12:38:06.790Z,100915.16
2022-12-04T12:40:33.335Z,100911.87
2022-12-04T12:43:21.581Z,100911.91
2022-12-04T12:46:30.875Z,100914.75
2022-12-04T12:49:06.776Z,100911.75
2022-12-04T12:51:47.776Z,100903.06
2022-12-04T12:54:35.842Z,100910.59
2022-12-04T12:57:17.552Z,100902.91
2022-12-04T12:59:53.945Z,100902.75
2022-12-04T13:02:29.363Z,100904.25
2022-12-04T13:05:00.211Z,100896.53
2022-12-04T13:07:51.003Z,100897.47
2022-12-04T13:10:30.416Z,100887.44
2022-12-04T13:13:03.659Z,100896.31
2022-12-04T13:15:42.215Z,100893.84
2022-12-04T13:18:15.807Z,100893.94
2022-12-04T13:20:53.034Z,100899.59
2022-12-04T13:24:14.631Z,100913.34
2022-12-04T13:26:49.706Z,100915.50
2022-12-04T13:29:51.336Z,100916.84
2022-12-04T13:32:47.495Z,100930.59
2022-12-04T13:35:38.210Z,100929.13
2022-12-04T13:38:18.416Z,100932.00
2022-12-04T13:40:51.631Z,100932.06
2022-12-04T13:43:27.340Z,100914.50
2022-12-04T13:45:56.467Z,100917.66
2022-12-04T13:48:43.243Z,100919.22
2022-12-04T13:51:38.155Z,100916.13
2022-12-04T13:54:10.900Z,100917.31
2022-12-04T13:56:39.876Z,100919.78
2022-12-04T13:59:22.118Z,100914.13
2022-12-04T14:01:51.280Z,100919.34
2022-12-04T14:04:42.220Z,100932.31
2022-12-04T14:07:25.187Z,100944.94
2022-12-04T14:09:54.557Z,100936.50
2022-12-04T14:12:28.295Z,100940.25
2022-12-04T14:15:00.183Z,100937.16
2022-12-04T14:17:33.686Z,100937.34
2022-12-04T14:20:08.276Z,100944.25
2022-12-04T14:22:37.898Z,100944.28
2022-12-04T14:25:13.613Z,100933.13
2022-12-04T14:27:51.846Z,100936.56
2022-12-04T14:30:38.423Z,100939.13
2022-12-04T14:33:21.427Z,100930.56
2022-12-04T14:35:53.016Z,100928.16
2022-12-04T14:38:22.361Z,100930.75
2022-12-04T14:40:52.252Z,100929.28
2022-12-04T14:43:24.881Z,100927.22
2022-12-04T14:46:26.527Z,100922.38
2022-12-04T14:49:05.102Z,100934.31
2022-12-04T14:51:36.546Z,100944.97
2022-12-04T14:54:35.746Z,100939.78
2022-12-04T14:57:30.258Z,100936.56
2022-12-04T14:59:57.004Z,100933.94
2022-12-04T15:02:26.534Z,100941.06
2022-12-04T15:04:53.770Z,100940.56
2022-12-04T15:07:28.319Z,100946.88
2022-12-04T15:10:16.028Z,100944.91
2022-12-04T15:12:50.793Z,100941.22
2022-12-04T15:15:22.037Z,100950.59
2022-12-04T15:18:11.583Z,100948.81
2022-12-04T15:20:50.418Z,100946.53
2022-12-04T15:23:41.353Z,100948.97
2022-12-04T15:26:12.702Z,100954.47
2022-12-04T15:29:00.563Z,100942.69
2022-12-04T15:31:32.394Z,100948.50
2022-12-04T15:34:06.817Z,100949.28
2022-12-04T15:37:03.183Z,100949.59
2022-12-04T15:39:33.281Z,100956.69
2022-12-04T15:42:17.253Z,100951.56
2022-12-04T15:45:01.362Z,100955.91
2022-12-04T15:47:30.995Z,100956.88
2022-12-04T15:50:17.737Z,100951.56
2022-12-04T15:52:59.221Z,100957.34
2022-12-04T15:55:28.275Z,100948.47
2022-12-04T15:57:58.836Z,100950.88
2022-12-04T16:00:30.190Z,100957.69
2022-12-04T16:02:58.374Z,100956.84
2022-12-04T16:05:36.933Z,100954.72
2022-12-04T16:08:31.021Z,100960.69
2022-12-04T16:11:20.686Z,100956.75
2022-12-04T16:13:50.077Z,100962.09
2022-12-04T16:16:22.214Z,100956.56
2022-12-04T16:18:49.148Z,100958.41
2022-12-04T16:21:18.229Z,100952.28
2022-12-04T16:23:45.736Z,100960.66
2022-12-04T16:26:17.885Z,100954.88
2022-12-04T16:28:45.028Z,100957.75
2022-12-04T16:31:13.212Z,100955.81
2022-12-04T16:33:40.704Z,100958.41
2022-12-04T16:36:13.116Z,100959.19
2022-12-04T16:38:39.758Z,100954.34
2022-12-04T16:41:13.336Z,100954.50
2022-12-04T16:43:39.997Z,100949.50
2022-12-04T16:46:06.717Z,100949.16
2022-12-04T16:48:34.831Z,100950.81
2022-12-04T16:51:01.390Z,100948.66
2022-12-04T16:53:27.942Z,100946.75
2022-12-04T16:55:54.505Z,100945.47
2022-12-04T16:58:21.505Z,100952.06
2022-12-04T17:00:56.314Z,100945.63
2022-12-04T17:03:31.562Z,100956.13
2022-12-04T17:06:00.353Z,100957.38
2022-12-04T17:08:28.247Z,100957.72
2022-12-04T17:10:57.541Z,100959.34
2022-12-04T17:13:24.166Z,100961.41
2022-12-04T17:15:50.764Z,100952.06
2022-12-04T17:18:20.988Z,100961.22
2022-12-04T17:20:51.212Z,100954.75
2022-12-04T17:23:17.857Z,100953.53
2022-12-04T17:25:44.414Z,100957.72
2022-12-04T17:28:11.788Z,100965.28
2022-12-04T17:30:38.480Z,100959.44
2022-12-04T17:33:05.347Z,100969.31
2022-12-04T17:35:32.072Z,100965.59
2022-12-04T17:38:05.343Z,100974.94
2022-12-04T17:40:32.975Z,100965.63
2022-12-04T17:42:59.787Z,100973.84
2022-12-04T17:45:26.382Z,100969.94
2022-12-04T17:47:52.960Z,100968.81
2022-12-04T17:50:19.520Z,100971.22
2022-12-04T17:52:46.104Z,100974.94
2022-12-04T17:55:14.895Z,100971.91
2022-12-04T17:57:41.425Z,100971.25
2022-12-04T18:00:08.949Z,100976.78
2022-12-04T18:02:36.298Z,100970.31
2022-12-04T18:05:03.417Z,100966.56
2022-12-04T18:07:31.511Z,100970.59
2022-12-04T18:10:01.094Z,100971.09
2022-12-04T18:12:27.712Z,100975.31
2022-12-04T18:14:54.279Z,100969.16
2022-12-04T18:17:21.741Z,100980.47
2022-12-04T18:19:48.287Z,100978.06
2022-12-04T18:22:14.895Z,100978.06
2022-12-04T18:24:41.471Z,100978.03
2022-12-04T18:27:08.332Z,100982.91
2022-12-04T18:29:34.884Z,100980.63
2022-12-04T18:32:01.464Z,100988.84
2022-12-04T18:34:28.159Z,100990.97
2022-12-04T18:36:54.718Z,100992.22
2022-12-04T18:39:23.562Z,100986.44
2022-12-04T18:41:51.208Z,100995.09
2022-12-04T18:44:18.184Z,100984.16
2022-12-04T18:46:44.754Z,100993.69
2022-12-04T18:49:11.675Z,100995.28
2022-12-04T18:51:40.828Z,100988.00
2022-12-04T18:54:12.819Z,100988.84
2022-12-04T18:56:39.783Z,100988.78
2022-12-04T18:59:20.155Z,100993.47
2022-12-04T19:01:47.086Z,100988.31
2022-12-04T19:04:16.685Z,100992.06
2022-12-04T19:06:45.947Z,100990.25
2022-12-04T19:09:15.406Z,100991.09
2022-12-04T19:11:42.273Z,100995.59
2022-12-04T19:14:20.802Z,100987.81
2022-12-04T19:16:50.013Z,100991.34
2022-12-04T19:19:17.160Z,100990.75
2022-12-04T19:21:44.459Z,100988.31
2022-12-04T19:24:11.698Z,100986.19
2022-12-04T19:26:39.090Z,100997.19
2022-12-04T19:29:07.129Z,100991.88
2022-12-04T19:31:37.806Z,100988.94
2022-12-04T19:34:05.191Z,100994.09
2022-12-04T19:36:33.432Z,100997.34
2022-12-04T19:39:01.183Z,100997.66
2022-12-04T19:41:30.291Z,100997.97
2022-12-04T19:44:01.166Z,100997.81
2022-12-04T19:46:30.554Z,100997.50
2022-12-04T19:49:01.634Z,100993.94
2022-12-04T19:51:28.872Z,100995.72
2022-12-04T19:53:55.510Z,100995.88
2022-12-04T19:56:25.603Z,100998.12
2022-12-04T19:58:53.633Z,101005.34
2022-12-04T20:01:24.885Z,100999.37
2022-12-04T20:03:51.493Z,100994.09
2022-12-04T20:06:19.970Z,100996.00
2022-12-04T20:08:47.637Z,100993.75
2022-12-04T20:11:17.482Z,101003.53
2022-12-04T20:13:45.808Z,100993.25
2022-12-04T20:16:14.891Z,100993.88
2022-12-04T20:18:42.584Z,101007.72
2022-12-04T20:21:13.427Z,100999.25
2022-12-04T20:23:40.957Z,101001.31
2022-12-04T20:26:09.673Z,101004.25
2022-12-04T20:28:36.965Z,101000.72
2022-12-04T20:31:15.927Z,101006.00
2022-12-04T20:33:43.741Z,101020.34
2022-12-04T20:36:11.028Z,101013.69
2022-12-04T20:38:38.486Z,101018.69
2022-12-04T20:41:07.084Z,101020.28
2022-12-04T20:43:33.731Z,101011.06
2022-12-04T20:46:00.854Z,101022.34
2022-12-04T20:48:27.525Z,101016.28
2022-12-04T20:50:54.146Z,101024.84
2022-12-04T20:53:20.706Z,101018.50
2022-12-04T20:55:54.489Z,101023.69
2022-12-04T20:58:21.564Z,101023.22
2022-12-04T21:00:48.303Z,101025.50
2022-12-04T21:03:15.621Z,101028.69
2022-12-04T21:05:48.268Z,101027.50
2022-12-04T21:08:34.781Z,101026.84
2022-12-04T21:11:02.782Z,101031.38
2022-12-04T21:13:47.745Z,101025.59
2022-12-04T21:16:14.444Z,101023.97
2022-12-04T21:18:41.026Z,101028.69
2022-12-04T21:21:07.575Z,101025.50
2022-12-04T21:23:35.957Z,101027.88
2022-12-04T21:26:02.601Z,101023.47
2022-12-04T21:28:29.208Z,101030.09
2022-12-04T21:31:03.497Z,101027.88
2022-12-04T21:33:32.178Z,101025.00
2022-12-04T21:36:09.337Z,101024.03
2022-12-04T21:38:37.906Z,101024.94
2022-12-04T21:41:06.613Z,101026.06
2022-12-04T21:43:34.413Z,101034.25
2022-12-04T21:46:09.026Z,101033.34
2022-12-04T21:48:36.389Z,101038.97
2022-12-04T21:51:26.833Z,101029.78
2022-12-04T21:53:58.345Z,101038.13
2022-12-04T21:56:25.605Z,101039.41
2022-12-04T21:58:53.036Z,101034.59
2022-12-04T22:01:21.736Z,101033.87
2022-12-04T22:03:48.868Z,101030.69
2022-12-04T22:06:15.426Z,101035.66
2022-12-04T22:08:42.346Z,101033.22
2022-12-04T22:11:11.020Z,101039.50
2022-12-04T22:13:38.683Z,101039.63
2022-12-04T22:16:08.564Z,101040.81
2022-12-04T22:18:35.501Z,101045.62
2022-12-04T22:21:08.865Z,101041.56
2022-12-04T22:23:36.063Z,101046.22
2022-12-04T22:26:12.265Z,101051.25
2022-12-04T22:28:39.793Z,101040.09
2022-12-04T22:31:12.351Z,101043.41
2022-12-04T22:33:39.547Z,101032.50
2022-12-04T22:36:11.936Z,101029.41
2022-12-04T22:38:58.692Z,101031.53
2022-12-04T22:41:26.073Z,101030.91
2022-12-04T22:43:52.656Z,101030.97
2022-12-04T22:46:19.550Z,101025.66
2022-12-04T22:48:46.687Z,101023.75
2022-12-04T22:51:16.497Z,101024.72
2022-12-04T22:53:45.719Z,101021.09
2022-12-04T22:56:17.944Z,101027.59
2022-12-04T22:58:44.642Z,101027.88
2022-12-04T23:01:26.718Z,101030.75
2022-12-04T23:03:53.802Z,101035.41
2022-12-04T23:06:22.706Z,101020.44
2022-12-04T23:08:53.687Z,101031.34
2022-12-04T23:11:22.200Z,101031.72
2022-12-04T23:13:56.913Z,101027.53
2022-12-04T23:16:24.893Z,101027.81
2022-12-04T23:18:51.873Z,101028.47
2022-12-04T23:21:19.833Z,101025.59
2022-12-04T23:23:47.577Z,101018.38
2022-12-04T23:26:17.583Z,101010.63
2022-12-04T23:28:44.188Z,101010.72
2022-12-04T23:31:11.582Z,101013.47
2022-12-04T23:33:39.052Z,101001.22
2022-12-04T23:36:07.564Z,101002.69
2022-12-04T23:38:35.934Z,101003.63
2022-12-04T23:41:05.477Z,101013.31
2022-12-04T23:43:32.704Z,101002.03
2022-12-04T23:45:59.277Z,101008.94
2022-12-04T23:48:26.123Z,101012.50
2022-12-04T23:50:53.466Z,101020.25
2022-12-04T23:53:20.936Z,101022.97
2022-12-04T23:56:03.573Z,101025.00
2022-12-04T23:58:31.745Z,101025.53
